Time;durP1;ratioP1;P1;durP2;ratioP2;P2;SDS_P1;SDS_P2;PMS_P1;PMS_P2;Temp;Humidity;BMP_temperature;BMP_pressure;BME280_temperature;BME280_humidity;BME280_pressure;Samples;Min_cycle;Max_cycle;Signal;HPM_P1;HPM_P2
2022/10/03 00:00:19;;;;;;;39.38;12.18;;;;;;;6.81;100.00;102295.03;1946309;29;20035;-82
2022/10/03 00:01:35;;;;;;;38.63;12.65;;;;;;;6.79;100.00;102288.97;1938765;29;20475;-86
2022/10/03 00:02:59;;;;;;;39.65;12.45;;;;;;;6.77;100.00;102293.31;1940140;29;20463;-84
2022/10/03 00:04:33;;;;;;;44.90;12.43;;;;;;;6.71;100.00;102294.19;1948854;28;20475;-83
2022/10/03 00:05:53;;;;;;;48.65;13.55;;;;;;;6.68;100.00;102295.03;1950143;28;20039;-82
2022/10/03 00:07:51;;;;;;;46.05;13.43;;;;;;;6.66;100.00;102291.59;1941270;29;20044;-83
2022/10/03 00:09:30;;;;;;;37.45;11.93;;;;;;;6.65;100.00;102284.69;1945784;29;20042;-85
2022/10/03 00:11:24;;;;;;;43.08;12.38;;;;;;;6.65;100.00;102289.00;1942223;29;20039;-83
2022/10/03 00:12:46;;;;;;;38.92;12.50;;;;;;;6.64;100.00;102295.94;1944732;29;20150;-83
2022/10/03 00:14:10;;;;;;;39.03;12.65;;;;;;;6.62;100.00;102289.91;1948532;28;20019;-85
2022/10/03 00:15:45;;;;;;;37.17;13.00;;;;;;;6.61;100.00;102290.78;1946280;29;20107;-82
2022/10/03 00:16:56;;;;;;;38.60;13.05;;;;;;;6.61;100.00;102292.47;1950507;28;20035;-81
2022/10/03 00:18:12;;;;;;;42.30;13.48;;;;;;;6.60;100.00;102286.41;1952914;28;20019;-82
2022/10/03 00:20:01;;;;;;;41.60;13.38;;;;;;;6.58;100.00;102288.19;1947549;28;20097;-81
2022/10/03 00:21:20;;;;;;;38.65;12.85;;;;;;;6.57;100.00;102289.06;1946328;29;20029;-85
2022/10/03 00:22:58;;;;;;;41.10;13.40;;;;;;;6.55;100.00;102285.56;1940533;29;20053;-82
2022/10/03 00:24:59;;;;;;;45.83;12.95;;;;;;;6.52;100.00;102298.53;1943629;29;20129;-84
2022/10/03 00:26:32;;;;;;;38.42;12.77;;;;;;;6.50;100.00;102300.28;1933224;29;20032;-83
2022/10/03 00:27:42;;;;;;;33.80;12.55;;;;;;;6.51;100.00;102294.25;1962180;28;20045;-81
2022/10/03 00:29:27;;;;;;;40.00;14.50;;;;;;;6.53;100.00;102301.16;1962038;28;20051;-83
2022/10/03 00:30:42;;;;;;;44.35;14.25;;;;;;;6.55;100.00;102298.53;1964553;28;20045;-84
2022/10/03 00:32:01;;;;;;;47.97;14.75;;;;;;;6.58;100.00;102306.34;1962134;28;20034;-82
2022/10/03 00:33:23;;;;;;;47.92;14.98;;;;;;;6.61;100.00;102303.75;1964083;28;20034;-83
2022/10/03 00:35:05;;;;;;;54.97;14.95;;;;;;;6.59;100.00;102295.09;1961909;28;20117;-84
2022/10/03 00:36:50;;;;;;;40.08;13.73;;;;;;;6.58;100.00;102298.53;1960069;28;20130;-86
2022/10/03 00:38:27;;;;;;;48.33;13.88;;;;;;;6.55;100.00;102308.94;1961824;28;20088;-83
2022/10/03 00:39:43;;;;;;;44.47;14.20;;;;;;;6.52;100.00;102309.81;1966128;28;20127;-82
2022/10/03 00:41:08;;;;;;;45.47;13.93;;;;;;;6.58;100.00;102308.94;1961318;28;20037;-82
2022/10/03 00:42:55;;;;;;;45.28;14.38;;;;;;;6.56;100.00;102315.84;1964970;28;20499;-84
2022/10/03 00:44:55;;;;;;;52.15;14.43;;;;;;;6.59;100.00;102315.84;1961940;28;20041;-82
2022/10/03 00:46:28;;;;;;;49.45;14.55;;;;;;;6.54;100.00;102318.41;1959644;28;20051;-83
2022/10/03 00:50:30;;;;;;;38.70;13.13;;;;;;;6.57;100.00;102315.00;1961411;28;20055;-86
2022/10/03 00:52:10;;;;;;;46.88;13.88;;;;;;;6.57;100.00;102312.41;1961737;28;20034;-84
2022/10/03 00:53:48;;;;;;;36.95;13.57;;;;;;;6.54;100.00;102317.59;1966746;28;20463;-83
2022/10/03 00:55:07;;;;;;;43.70;14.65;;;;;;;6.51;100.00;102325.38;1961176;28;20059;-83
2022/10/03 00:57:24;;;;;;;41.58;14.50;;;;;;;6.49;100.00;102321.88;1955903;28;20125;-83
2022/10/03 00:59:36;;;;;;;;;;;;;;;;;;;;;
2022/10/03 01:00:54;;;;;;;37.33;13.15;;;;;;;6.41;100.00;102322.78;1959153;28;20480;-83
2022/10/03 01:02:21;;;;;;;45.22;14.43;;;;;;;6.40;100.00;102325.38;1961820;28;20441;-81
2022/10/03 01:03:42;;;;;;;40.33;14.52;;;;;;;6.39;100.00;102326.22;1957355;28;20045;-86
2022/10/03 01:05:22;;;;;;;47.15;15.52;;;;;;;6.43;100.00;102320.16;1964797;28;20283;-83
2022/10/03 01:06:34;;;;;;;41.25;15.38;;;;;;;6.42;100.00;102323.63;1961320;28;20137;-85
2022/10/03 01:08:23;;;;;;;44.80;14.98;;;;;;;6.39;100.00;102324.50;1963133;28;20468;-84
2022/10/03 01:09:57;;;;;;;39.90;14.48;;;;;;;6.39;100.00;102324.50;1961711;28;20048;-86
2022/10/03 01:11:37;;;;;;;47.03;15.68;;;;;;;6.41;100.00;102327.97;1965805;28;20045;-84
2022/10/03 01:13:05;;;;;;;;;;;;;;;;;;;;;
2022/10/03 01:14:45;;;;;;;44.22;15.50;;;;;;;6.42;100.00;102337.47;1961900;28;20107;-83
2022/10/03 01:16:01;;;;;;;;;;;;;;;6.43;100.00;102341.78;1961337;28;20499;-85
2022/10/03 01:18:05;;;;;;;40.13;13.05;;;;;;;6.42;100.00;102337.47;1963263;28;19913;-82
2022/10/03 01:20:17;;;;;;;41.45;13.98;;;;;;;6.38;100.00;102348.72;1943485;28;20036;-82
2022/10/03 01:22:01;;;;;;;52.55;14.70;;;;;;;6.35;100.00;102356.50;1961226;28;20586;-83
2022/10/03 01:23:30;;;;;;;37.95;13.68;;;;;;;6.31;100.00;102350.47;1969074;28;20328;-83
2022/10/03 01:25:05;;;;;;;;;;;;;;;;;;;;;
2022/10/03 01:26:55;;;;;;;33.63;13.35;;;;;;;6.33;100.00;102355.63;1961979;28;20037;-81
2022/10/03 01:30:27;;;;;;;48.10;14.75;;;;;;;6.28;100.00;102357.34;1951618;28;20049;-81
2022/10/03 01:31:49;;;;;;;40.53;14.30;;;;;;;6.28;100.00;102352.16;1953139;28;20050;-85
2022/10/03 01:33:14;;;;;;;38.25;15.45;;;;;;;6.27;100.00;102356.47;1961969;28;20034;-83
2022/10/03 01:34:43;;;;;;;57.00;16.63;;;;;;;6.30;100.00;102356.47;1964575;28;20038;-81
2022/10/03 01:36:15;;;;;;;49.47;17.20;;;;;;;6.30;100.00;102356.47;1962256;28;20061;-83
2022/10/03 01:38:26;;;;;;;45.08;15.02;;;;;;;6.33;100.00;102355.63;1965537;28;20037;-83
2022/10/03 01:40:27;;;;;;;52.58;15.30;;;;;;;6.31;100.00;102357.34;1956313;28;20046;-84
2022/10/03 01:41:50;;;;;;;47.95;14.63;;;;;;;6.29;100.00;102353.88;1961788;28;20054;-84
2022/10/03 01:43:14;;;;;;;52.28;16.20;;;;;;;6.31;100.00;102354.75;1961414;28;20048;-85
2022/10/03 01:44:41;;;;;;;51.40;16.30;;;;;;;6.27;100.00;102355.63;1964063;28;20109;-82
2022/10/03 01:46:10;;;;;;;58.97;16.05;;;;;;;6.25;100.00;102355.63;1961025;28;20121;-83
2022/10/03 01:48:08;;;;;;;48.40;16.45;;;;;;;6.28;100.00;102359.94;1964705;28;20036;-83
2022/10/03 01:49:53;;;;;;;45.60;15.38;;;;;;;6.28;100.00;102358.22;1969264;28;20045;-87
2022/10/03 01:51:52;;;;;;;49.63;15.98;;;;;;;6.30;100.00;102355.63;1945831;29;20096;-83
2022/10/03 01:53:54;;;;;;;43.03;14.65;;;;;;;6.27;100.00;102356.47;1948511;28;20035;-82
2022/10/03 01:55:28;;;;;;;43.20;14.93;;;;;;;6.30;100.00;102363.41;1961517;28;20072;-84
2022/10/03 01:56:48;;;;;;;53.80;15.43;;;;;;;6.37;100.00;102357.34;1957687;28;20085;-81
2022/10/03 01:58:12;;;;;;;54.03;16.27;;;;;;;6.41;100.00;102353.91;1955915;28;20034;-86
2022/10/03 01:59:18;;;;;;;56.22;16.52;;;;;;;6.48;100.00;102359.06;1964202;28;20030;-83
2022/10/03 02:00:35;;;;;;;64.53;18.48;;;;;;;6.44;100.00;102348.69;1961828;28;20072;-84
2022/10/03 02:02:17;;;;;;;51.22;17.70;;;;;;;6.44;100.00;102355.63;1963126;28;20022;-85
2022/10/03 02:03:58;;;;;;;55.45;17.60;;;;;;;6.39;100.00;102360.81;1946785;28;20352;-84
2022/10/03 02:05:47;;;;;;;;;;;;;;;;;;;;;
2022/10/03 02:07:34;;;;;;;48.50;16.77;;;;;;;6.33;100.00;102355.63;1965008;28;20436;-84
2022/10/03 02:09:32;;;;;;;50.03;16.48;;;;;;;6.28;100.00;102363.41;1960991;28;20144;-85
2022/10/03 02:11:08;;;;;;;52.90;16.23;;;;;;;6.28;100.00;102358.22;1968141;28;20389;-85
2022/10/03 02:12:49;;;;;;;48.78;16.83;;;;;;;6.26;100.00;102365.13;1965501;28;20057;-83
2022/10/03 02:14:30;;;;;;;52.90;16.60;;;;;;;6.27;100.00;102363.41;1968717;28;20058;-83
2022/10/03 02:16:41;;;;;;;52.42;16.40;;;;;;;6.33;100.00;102366.00;1961218;28;20362;-82
2022/10/03 02:18:54;;;;;;;48.67;16.40;;;;;;;6.37;100.00;102372.06;1936489;29;20084;-84
2022/10/03 02:20:45;;;;;;;57.30;16.05;;;;;;;6.34;100.00;102367.75;1930383;29;20032;-83
2022/10/03 02:24:46;;;;;;;;;;;;;;;;;;;;;
2022/10/03 02:26:26;;;;;;;66.43;17.17;;;;;;;6.25;100.00;102365.13;1961189;28;20376;-84
2022/10/03 02:28:12;;;;;;;49.40;16.98;;;;;;;6.22;100.00;102370.34;1961024;28;20475;-83
2022/10/03 02:29:55;;;;;;;49.53;16.77;;;;;;;6.21;100.00;102364.28;1966728;28;20091;-84
2022/10/03 02:31:49;;;;;;;61.05;18.25;;;;;;;6.21;100.00;102361.69;1967891;28;20029;-84
2022/10/03 02:33:45;;;;;;;61.22;18.90;;;;;;;6.26;100.00;102361.69;1956900;28;20041;-82
2022/10/03 02:35:47;;;;;;;58.53;18.08;;;;;;;6.24;100.00;102356.50;1968148;28;20026;-85
2022/10/03 02:37:39;;;;;;;66.97;18.70;;;;;;;6.25;100.00;102365.13;1967623;28;20034;-83
2022/10/03 02:39:13;;;;;;;55.60;18.48;;;;;;;6.21;100.00;102364.28;1957459;28;20462;-83
2022/10/03 02:41:26;;;;;;;52.72;17.08;;;;;;;6.21;100.00;102371.19;1965701;28;20052;-85
2022/10/03 02:43:15;;;;;;;55.70;17.77;;;;;;;6.18;100.00;102370.31;1932131;29;20088;-85
2022/10/03 02:45:17;;;;;;;58.95;18.10;;;;;;;6.22;100.00;102366.00;1925960;29;20458;-85
2022/10/03 02:47:10;;;;;;;56.38;16.98;;;;;;;6.17;100.00;102371.16;1931781;29;20073;-82
2022/10/03 02:49:18;;;;;;;63.90;18.02;;;;;;;6.12;100.00;102365.13;1962595;28;20119;-82
2022/10/03 02:51:37;;;;;;;;;;;;;;;;;;;;;
2022/10/03 02:53:08;;;;;;;52.08;17.02;;;;;;;6.09;100.00;102353.91;1963137;28;20413;-85
2022/10/03 02:56:59;;;;;;;56.20;16.55;;;;;;;6.05;100.00;102364.25;1963007;28;19909;-84
2022/10/03 02:58:46;;;;;;;58.65;17.83;;;;;;;6.04;100.00;102369.44;1962566;28;20045;-83
2022/10/03 03:02:53;;;;;;;56.70;17.10;;;;;;;6.03;100.00;102359.91;1946519;29;20059;-87
2022/10/03 03:06:50;;;;;;;;;;;;;;;;;;;;;
2022/10/03 03:08:47;;;;;;;57.33;18.88;;;;;;;6.04;100.00;102359.94;1939109;29;20197;-84
2022/10/03 03:13:02;;;;;;;;;;;;;;;;;;;;;
2022/10/03 03:14:53;;;;;;;64.07;19.60;;;;;;;5.99;100.00;102365.94;1955134;28;20417;-86
2022/10/03 03:18:53;;;;;;;56.58;17.50;;;;;;;5.96;100.00;102360.75;1955349;28;20378;-85
2022/10/03 03:25:51;;;;;;;;;;;;;;;;;;;;;
2022/10/03 03:30:14;;;;;;;53.72;17.90;;;;;;;5.87;100.00;102372.84;1942075;29;20037;-83
2022/10/03 03:32:36;;;;;;;46.70;17.50;;;;;;;5.87;100.00;102378.03;1939041;29;20472;-86
2022/10/03 03:37:21;;;;;;;51.20;16.98;;;;;;;5.82;100.00;102371.97;1938976;29;20059;-86
2022/10/03 03:39:34;;;;;;;59.83;18.05;;;;;;;5.83;100.00;102376.28;1938282;29;20036;-85
2022/10/03 03:41:31;;;;;;;46.47;17.33;;;;;;;5.91;100.00;102374.56;1931467;29;20047;-85
2022/10/03 03:43:30;;;;;;;54.80;18.23;;;;;;;5.87;100.00;102371.97;1932272;29;20032;-83
2022/10/03 03:47:48;;;;;;;55.58;17.20;;;;;;;5.81;100.00;102378.00;1939431;29;20391;-84
2022/10/03 03:50:00;;;;;;;;;;;;;;;;;;;;;
2022/10/03 03:56:46;;;;;;;47.00;17.10;;;;;;;5.72;100.00;102380.56;1938236;29;20039;-85
2022/10/03 03:59:02;;;;;;;;;;;;;;;;;;;;;
2022/10/03 04:01:25;;;;;;;;;;;;;;;;;;;;;
2022/10/03 04:05:55;;;;;;;;;;;;;;;;;;;;;
2022/10/03 04:13:06;;;;;;;;;;;;;;;;;;;;;
2022/10/03 05:14:09;;;;;;;;;;;;;;;;;;;;;
2022/10/03 05:18:22;;;;;;;60.80;16.33;;;;;;;6.03;100.00;102391.00;1983227;28;20298;-83
2022/10/03 05:31:35;;;;;;;51.97;16.48;;;;;;;6.05;100.00;102412.63;1969097;28;20029;-85
2022/10/03 05:41:53;;;;;;;40.15;14.82;;;;;;;6.09;100.00;102419.56;1978447;22;20076;-71
2022/10/03 05:42:54;;;;;;;49.45;17.73;;;;;;;6.11;100.00;102423.03;1977390;28;20040;-71
2022/10/03 05:44:16;;;;;;;53.00;18.40;;;;;;;6.12;100.00;102423.91;1977123;28;20039;-71
2022/10/03 05:45:48;;;;;;;57.35;19.08;;;;;;;6.11;100.00;102425.63;1977252;28;20554;-70
2022/10/03 05:49:19;;;;;;;58.72;17.33;;;;;;;6.12;100.00;102427.34;1977280;28;20127;-71
2022/10/03 05:50:41;;;;;;;45.60;16.98;;;;;;;6.12;100.00;102429.94;1977869;28;20045;-72
2022/10/03 05:52:22;;;;;;;48.03;18.27;;;;;;;6.14;100.00;102423.03;1977164;28;20119;-72
2022/10/03 05:54:06;;;;;;;;;;;;;;;6.15;100.00;102422.16;1977738;28;20078;-70
2022/10/03 05:55:51;;;;;;;51.92;15.95;;;;;;;6.17;100.00;102424.75;1976371;28;19909;-72
2022/10/03 05:57:10;;;;;;;54.33;16.35;;;;;;;6.24;100.00;102433.41;1977262;28;20499;-72
2022/10/03 05:58:39;;;;;;;56.55;17.88;;;;;;;6.25;100.00;102425.63;1977198;28;20049;-72
2022/10/03 06:00:09;;;;;;;59.50;18.40;;;;;;;6.27;100.00;102429.06;1977343;28;20052;-72
2022/10/03 06:01:33;;;;;;;62.38;19.48;;;;;;;6.29;100.00;102435.16;1977223;28;20045;-71
2022/10/03 06:03:09;;;;;;;61.95;19.00;;;;;;;6.30;100.00;102423.91;1977216;28;20048;-71
2022/10/03 06:04:49;;;;;;;61.70;18.73;;;;;;;6.32;100.00;102431.69;1977103;28;20042;-71
2022/10/03 06:06:23;;;;;;;57.10;19.17;;;;;;;6.31;100.00;102435.16;1977296;28;20037;-71
2022/10/03 06:07:49;;;;;;;57.03;18.25;;;;;;;6.35;100.00;102431.69;1977226;28;20048;-71
2022/10/03 06:09:09;;;;;;;59.95;18.70;;;;;;;6.38;100.00;102436.88;1977190;28;20033;-71
2022/10/03 06:10:32;;;;;;;62.30;20.37;;;;;;;6.40;100.00;102440.34;1977326;28;20033;-72
2022/10/03 06:11:56;;;;;;;58.38;18.83;;;;;;;6.41;100.00;102434.31;1977369;28;20350;-72
2022/10/03 06:13:02;;;;;;;61.78;19.92;;;;;;;6.46;100.00;102444.66;1977231;28;20157;-72
2022/10/03 06:14:34;;;;;;;52.78;19.77;;;;;;;6.54;100.00;102442.09;1977707;28;20108;-71
2022/10/03 06:15:55;;;;;;;57.50;19.25;;;;;;;6.60;100.00;102439.47;1977945;28;20029;-71
2022/10/03 06:17:27;;;;;;;49.17;18.02;;;;;;;6.68;100.00;102442.94;1975895;28;20538;-73
2022/10/03 06:19:06;;;;;;;55.72;20.13;;;;;;;6.74;100.00;102438.63;1978639;28;20105;-71
2022/10/03 06:20:48;;;;;;;63.45;19.13;;;;;;;6.82;100.00;102442.91;1978608;28;20064;-72
2022/10/03 06:22:37;;;;;;;53.33;19.67;;;;;;;6.88;100.00;102452.44;1977672;28;20033;-70
2022/10/03 06:24:09;;;;;;;49.90;17.58;;;;;;;6.97;100.00;102440.34;1977628;28;20054;-70
2022/10/03 06:25:21;;;;;;;55.42;18.98;;;;;;;7.04;100.00;102444.63;1977564;28;20046;-71
2022/10/03 06:26:43;;;;;;;61.78;20.15;;;;;;;7.06;100.00;102441.19;1977606;28;20128;-71
2022/10/03 06:28:17;;;;;;;55.03;19.92;;;;;;;7.11;100.00;102441.16;1978414;28;20037;-71
2022/10/03 06:29:29;;;;;;;57.67;21.52;;;;;;;7.16;100.00;102436.84;1978527;28;20412;-71
2022/10/03 06:31:27;;;;;;;56.03;21.65;;;;;;;7.22;100.00;102441.13;1978581;28;20045;-71
2022/10/03 06:33:05;;;;;;;70.00;21.20;;;;;;;7.26;100.00;102447.19;1977515;28;20042;-70
2022/10/03 06:34:26;;;;;;;63.60;20.30;;;;;;;7.31;100.00;102445.44;1977579;28;20030;-70
2022/10/03 06:36:08;;;;;;;63.22;22.25;;;;;;;7.35;100.00;102452.34;1977553;28;20108;-70
2022/10/03 06:38:20;;;;;;;57.67;20.13;;;;;;;7.34;100.00;102450.63;1977597;28;20049;-71
2022/10/03 06:40:02;;;;;;;57.20;20.42;;;;;;;7.32;100.00;102454.94;1962208;28;20125;-70
2022/10/03 06:41:45;;;;;;;61.58;21.33;;;;;;;7.31;100.00;102453.22;1961861;28;20034;-69
2022/10/03 06:43:08;;;;;;;63.42;21.35;;;;;;;7.31;100.00;102440.25;1961946;28;20054;-71
2022/10/03 06:44:39;;;;;;;53.53;21.30;;;;;;;7.30;100.00;102448.91;1964721;28;20082;-70
2022/10/03 06:46:11;;;;;;;63.38;21.08;;;;;;;7.31;100.00;102448.91;1973110;28;20059;-74
2022/10/03 06:47:27;;;;;;;65.82;22.08;;;;;;;7.37;100.00;102442.84;1975038;28;20051;-71
2022/10/03 06:48:48;;;;;;;64.38;23.40;;;;;;;7.40;100.00;102450.63;1977933;28;20040;-72
2022/10/03 06:50:34;;;;;;;66.35;22.10;;;;;;;7.56;100.00;102442.78;1966255;28;20042;-70
2022/10/03 06:52:14;;;;;;;55.47;21.35;;;;;;;7.97;100.00;102446.88;1978507;28;20120;-71
2022/10/03 06:53:43;;;;;;;71.20;24.25;;;;;;;8.67;100.00;102448.19;1970531;28;20481;-73
2022/10/03 06:55:23;;;;;;;90.35;27.42;;;;;;;9.14;100.00;102448.56;1978491;28;20045;-72
2022/10/03 06:56:58;;;;;;;69.72;25.40;;;;;;;9.35;100.00;102458.78;1978232;28;20093;-72
2022/10/03 06:58:45;;;;;;;71.20;26.23;;;;;;;9.42;100.00;102457.84;1978320;28;20036;-71
2022/10/03 07:00:14;;;;;;;73.45;26.67;;;;;;;9.70;100.00;102447.09;1977446;28;20136;-71
2022/10/03 07:01:11;;;;;;;62.10;26.25;;;;;;;10.11;100.00;102451.75;1978297;28;20108;-70
2022/10/03 07:02:39;;;;;;;75.45;28.05;;;;;;;10.15;100.00;102456.03;1978050;28;20428;-70
2022/10/03 07:04:23;;;;;;;61.15;26.15;;;;;;;10.40;100.00;102453.91;1978187;28;20052;-69
2022/10/03 07:05:53;;;;;;;64.97;27.00;;;;;;;10.53;100.00;102459.81;1978249;28;20070;-70
2022/10/03 07:07:32;;;;;;;70.32;26.85;;;;;;;10.58;100.00;102459.75;1970492;28;20045;-67
2022/10/03 07:09:01;;;;;;;66.15;25.90;;;;;;;10.24;100.00;102463.72;1969657;28;20026;-66
2022/10/03 07:10:20;;;;;;;61.80;23.85;;;;;;;10.09;100.00;102466.56;1970131;28;20038;-69
2022/10/03 07:11:46;;;;;;;69.25;24.27;;;;;;;10.21;100.00;102466.38;1970404;28;20107;-69
2022/10/03 07:13:11;;;;;;;59.40;23.08;;;;;;;10.39;100.00;102459.13;1970418;28;20441;-69
2022/10/03 07:15:07;;;;;;;60.35;24.75;;;;;;;10.78;100.00;102464.63;1970551;28;20112;-68
2022/10/03 07:16:35;;;;;;;52.15;22.15;;;;;;;10.84;100.00;102468.03;1970422;28;20071;-70
2022/10/03 07:17:48;;;;;;;68.57;24.63;;;;;;;11.17;100.00;102460.47;1973831;28;20473;-69
2022/10/03 07:19:47;;;;;;;70.72;26.50;;;;;;;11.33;100.00;102456.66;1978205;28;20038;-69
2022/10/03 07:21:47;;;;;;;57.88;24.55;;;;;;;11.61;100.00;102451.75;1976468;28;20458;-67
2022/10/03 07:23:29;;;;;;;;;;;;;;;12.16;100.00;102461.94;1970007;28;20497;-69
2022/10/03 07:25:04;;;;;;;63.72;22.20;;;;;;;12.06;100.00;102462.16;1961629;28;19910;-69
2022/10/03 07:26:38;;;;;;;61.63;24.45;;;;;;;11.86;100.00;102467.78;1977287;28;20437;-69
2022/10/03 07:28:07;;;;;;;59.72;23.70;;;;;;;12.24;100.00;102470.44;1978055;28;20052;-67
2022/10/03 07:29:41;;;;;;;49.65;23.88;;;;;;;11.90;100.00;102473.81;1978167;28;20187;-69
2022/10/03 07:31:07;;;;;;;49.08;23.00;;;;;;;12.18;100.00;102475.84;1978138;28;20048;-68
2022/10/03 07:32:42;;;;;;;42.88;20.85;;;;;;;12.75;100.00;102470.97;1977997;28;20040;-69
2022/10/03 07:33:59;;;;;;;46.20;21.45;;;;;;;13.31;100.00;102473.88;1969096;28;20038;-67
2022/10/03 07:38:56;;;;;;;33.33;19.20;;;;;;;13.72;100.00;102473.63;1978115;28;20029;-67
2022/10/03 07:38:59;;;;;;;26.30;14.45;;;;;;;14.78;100.00;102476.41;1977971;28;20109;-69
2022/10/03 07:40:28;;;;;;;22.17;13.75;;;;;;;14.57;95.28;102472.72;1977936;28;20035;-69
2022/10/03 07:41:50;;;;;;;24.30;11.50;;;;;;;15.08;100.00;102477.19;1977812;28;20103;-68
2022/10/03 07:43:13;;;;;;;17.42;9.20;;;;;;;14.98;100.00;102477.50;1977874;28;20029;-68
2022/10/03 07:44:46;;;;;;;17.83;8.90;;;;;;;15.53;100.00;102470.31;1977939;28;20524;-68
2022/10/03 07:46:16;;;;;;;18.77;8.20;;;;;;;15.82;94.64;102476.22;1978090;28;20046;-69
2022/10/03 07:47:47;;;;;;;14.88;8.00;;;;;;;14.35;91.52;102486.56;1968777;28;20041;-69
2022/10/03 07:49:05;;;;;;;15.20;8.00;;;;;;;14.52;94.09;102486.03;1973419;28;20340;-67
2022/10/03 07:50:46;;;;;;;16.90;7.97;;;;;;;15.18;100.00;102489.06;1977973;28;20037;-69
2022/10/03 07:52:37;;;;;;;15.95;7.00;;;;;;;15.78;100.00;102487.78;1978081;28;20489;-68
2022/10/03 07:54:20;;;;;;;12.45;6.88;;;;;;;16.05;96.41;102490.28;1977975;28;20055;-69
2022/10/03 07:55:43;;;;;;;13.10;6.28;;;;;;;16.09;93.07;102491.88;1977938;28;20465;-68
2022/10/03 07:57:12;;;;;;;15.07;6.40;;;;;;;16.29;84.63;102503.41;1978018;28;20062;-70
2022/10/03 07:58:27;;;;;;;13.27;6.28;;;;;;;14.87;88.79;102498.91;1978002;28;20045;-69
2022/10/03 07:59:52;;;;;;;12.85;6.90;;;;;;;16.28;90.62;102499.06;1969450;28;20055;-68
2022/10/03 08:01:08;;;;;;;15.05;6.78;;;;;;;16.14;99.99;102497.81;1972619;28;20061;-69
2022/10/03 08:02:34;;;;;;;10.32;6.13;;;;;;;15.02;90.70;102510.66;1977875;28;20058;-68
2022/10/03 08:04:15;;;;;;;12.18;6.38;;;;;;;14.57;93.37;102504.25;1977975;28;20037;-68
2022/10/03 08:05:33;;;;;;;14.27;6.85;;;;;;;15.66;100.00;102500.50;1977506;28;20042;-68
2022/10/03 08:07:06;;;;;;;12.63;6.38;;;;;;;16.54;98.60;102499.75;1977801;28;20051;-68
2022/10/03 08:08:32;;;;;;;13.88;6.35;;;;;;;17.22;98.94;102504.81;1977877;28;20488;-69
2022/10/03 08:10:11;;;;;;;14.13;6.40;;;;;;;17.55;83.76;102499.84;1978022;28;20604;-69
2022/10/03 08:11:53;;;;;;;10.97;6.07;;;;;;;15.24;88.90;102503.78;1977921;28;20461;-69
2022/10/03 08:13:26;;;;;;;13.35;6.30;;;;;;;15.16;91.16;102507.53;1969078;28;20455;-70
2022/10/03 08:14:39;;;;;;;10.70;6.10;;;;;;;14.77;99.02;102505.38;1977844;28;20041;-69
2022/10/03 08:15:54;;;;;;;16.30;6.38;;;;;;;14.35;98.97;102498.84;1977782;28;20041;-69
2022/10/03 08:17:28;;;;;;;13.93;6.20;;;;;;;14.62;100.00;102506.72;1975487;28;20076;-69
2022/10/03 08:18:47;;;;;;;13.63;6.00;;;;;;;13.28;100.00;102495.81;1977802;28;20038;-68
2022/10/03 08:20:15;;;;;;;8.68;5.60;;;;;;;13.14;100.00;102499.66;1977794;28;20524;-68
2022/10/03 08:22:00;;;;;;;14.43;6.70;;;;;;;13.50;100.00;102498.72;1977794;28;20506;-67
2022/10/03 08:23:32;;;;;;;10.13;5.97;;;;;;;14.63;100.00;102506.69;1977779;28;20029;-68
2022/10/03 08:25:00;;;;;;;16.48;6.30;;;;;;;15.38;99.09;102504.16;1977734;28;20037;-69
2022/10/03 08:26:16;;;;;;;11.30;5.70;;;;;;;15.11;94.11;102504.22;1977459;28;20048;-68
2022/10/03 08:27:34;;;;;;;10.80;5.95;;;;;;;15.82;100.00;102494.66;1977765;28;20033;-69
2022/10/03 08:29:01;;;;;;;12.63;6.00;;;;;;;15.23;95.93;102502.06;1977652;28;20121;-68
2022/10/03 08:30:21;;;;;;;11.68;6.13;;;;;;;15.75;92.10;102494.03;1977658;28;20029;-69
2022/10/03 08:31:40;;;;;;;10.25;5.85;;;;;;;16.28;100.00;102496.44;1977683;28;20448;-69
2022/10/03 08:33:13;;;;;;;14.63;5.93;;;;;;;16.03;90.78;102492.13;1977610;28;20033;-69
2022/10/03 08:34:42;;;;;;;14.30;5.72;;;;;;;15.36;90.64;102490.19;1977579;28;20347;-69
2022/10/03 08:36:14;;;;;;;10.68;5.63;;;;;;;16.51;92.95;102502.50;1969339;28;20053;-68
2022/10/03 08:37:40;;;;;;;13.55;6.60;;;;;;;17.60;90.44;102497.84;1973134;28;20049;-70
2022/10/03 08:39:04;;;;;;;13.23;6.07;;;;;;;17.65;86.98;102492.38;1977541;28;20046;-70
2022/10/03 08:40:52;;;;;;;11.90;5.72;;;;;;;17.86;80.91;102506.34;1977659;28;20404;-70
2022/10/03 08:42:25;;;;;;;9.13;5.43;;;;;;;18.02;88.07;102496.78;1977376;28;20192;-69
2022/10/03 08:44:01;;;;;;;10.35;5.07;;;;;;;19.01;82.00;102503.38;1977553;28;20034;-68
2022/10/03 08:45:31;;;;;;;13.82;4.93;;;;;;;16.22;85.51;102505.44;1977440;28;20046;-67
2022/10/03 08:47:08;;;;;;;10.30;5.57;;;;;;;17.15;84.98;102503.38;1975243;28;20090;-70
2022/10/03 08:48:30;;;;;;;10.60;5.22;;;;;;;16.75;87.44;102503.28;1977567;28;20555;-67
2022/10/03 08:50:18;;;;;;;12.93;5.90;;;;;;;17.45;88.80;102515.25;1969147;28;20038;-69
2022/10/03 08:52:03;;;;;;;13.10;5.68;;;;;;;18.48;81.36;102505.19;1975443;28;20083;-68
2022/10/03 08:53:37;;;;;;;11.73;5.47;;;;;;;19.10;89.84;102506.50;1977477;28;20049;-69
2022/10/03 08:55:21;;;;;;;12.32;5.38;;;;;;;19.43;77.57;102514.44;1977684;28;20112;-70
2022/10/03 08:56:45;;;;;;;11.57;5.22;;;;;;;19.18;83.78;102514.91;1969133;28;20428;-70
2022/10/03 08:58:21;;;;;;;15.20;5.40;;;;;;;17.81;77.76;102510.97;1972070;28;20508;-69
2022/10/03 09:00:07;;;;;;;13.40;5.28;;;;;;;19.00;82.82;102514.91;1977476;28;20044;-68
2022/10/03 09:01:56;;;;;;;11.65;5.32;;;;;;;19.16;75.81;102522.09;1977515;28;20075;-69
2022/10/03 09:03:38;;;;;;;10.52;4.80;;;;;;;19.50;75.66;102517.59;1977226;28;20033;-69
2022/10/03 09:04:54;;;;;;;9.40;5.03;;;;;;;18.81;76.97;102516.78;1977414;28;20057;-68
2022/10/03 09:06:25;;;;;;;9.30;5.00;;;;;;;18.57;75.06;102509.19;1977351;28;20037;-69
2022/10/03 09:08:17;;;;;;;16.05;5.60;;;;;;;18.74;75.82;102509.16;1977455;28;20037;-69
2022/10/03 09:10:08;;;;;;;9.43;4.40;;;;;;;19.01;76.74;102513.09;1961060;28;20046;-70
2022/10/03 09:11:40;;;;;;;11.23;4.80;;;;;;;18.85;76.01;102511.25;1945669;29;20073;-66
2022/10/03 09:13:40;;;;;;;8.57;4.50;;;;;;;19.14;72.85;102510.72;1977318;28;20040;-68
2022/10/03 09:15:10;;;;;;;10.23;4.97;;;;;;;18.84;73.43;102516.63;1960915;28;20051;-66
2022/10/03 09:16:46;;;;;;;9.23;4.88;;;;;;;19.43;75.91;102524.16;1977380;28;20149;-69
2022/10/03 09:18:05;;;;;;;9.88;4.70;;;;;;;18.32;80.66;102520.94;1977347;28;20116;-68
2022/10/03 09:19:29;;;;;;;9.93;4.50;;;;;;;19.53;85.78;102517.44;1977513;28;20034;-67
2022/10/03 09:20:54;;;;;;;9.65;4.53;;;;;;;17.62;79.93;102514.50;1977343;28;20040;-67
2022/10/03 09:22:14;;;;;;;12.40;4.07;;;;;;;18.99;80.26;102515.81;1977439;28;20060;-70
2022/10/03 09:24:05;;;;;;;8.80;4.07;;;;;;;18.09;78.10;102509.69;1977418;28;20037;-69
2022/10/03 09:25:49;;;;;;;10.15;4.40;;;;;;;18.19;86.25;102516.25;1975073;28;20041;-67
2022/10/03 09:27:13;;;;;;;9.80;4.40;;;;;;;17.91;77.79;102512.28;1977140;28;20033;-67
2022/10/03 09:28:32;;;;;;;11.30;3.90;;;;;;;18.12;81.61;102509.56;1969029;28;20117;-67
2022/10/03 09:30:18;;;;;;;9.93;3.65;;;;;;;19.17;76.32;102513.19;1971127;28;20041;-68
2022/10/03 09:31:49;;;;;;;10.93;3.50;;;;;;;18.31;72.92;102504.25;1968823;28;20048;-69
2022/10/03 09:33:16;;;;;;;8.57;2.65;;;;;;;19.14;73.31;102508.06;1972707;28;20045;-68
2022/10/03 09:34:44;;;;;;;5.85;2.63;;;;;;;19.59;67.74;102503.03;1968889;28;20033;-68
2022/10/03 09:36:18;;;;;;;7.65;2.67;;;;;;;20.19;81.11;102500.66;1972488;28;20061;-67
2022/10/03 09:38:02;;;;;;;5.00;2.25;;;;;;;19.86;70.67;102498.94;1977249;28;20038;-69
2022/10/03 09:39:40;;;;;;;10.68;2.47;;;;;;;20.04;67.60;102495.28;1968741;28;20041;-69
2022/10/03 09:41:17;;;;;;;8.48;2.72;;;;;;;20.55;76.01;102494.16;1965725;28;20135;-67
2022/10/03 09:42:56;;;;;;;9.50;2.70;;;;;;;20.04;76.75;102484.69;1965565;28;20084;-68